Time;durP1;ratioP1;P1;durP2;ratioP2;P2;SDS_P1;SDS_P2;PMS_P1;PMS_P2;Temp;Humidity;BMP_temperature;BMP_pressure;BME280_temperature;BME280_humidity;BME280_pressure;Samples;Min_cycle;Max_cycle;Signal;HPM_P1;HPM_P2
2023/04/16 00:01:38;;;;;;;2.60;1.25;;;;;;;13.26;59.36;97672.28;4456723;32;20069;-82
2023/04/16 00:04:05;;;;;;;5.32;1.70;;;;;;;13.45;59.39;97676.34;4455004;32;20115;-82
2023/04/16 00:06:33;;;;;;;5.60;1.83;;;;;;;13.34;59.79;97679.59;4456765;32;20499;-82
2023/04/16 00:09:00;;;;;;;5.05;1.90;;;;;;;13.49;59.93;97672.66;4456718;32;20085;-82
2023/04/16 00:11:27;;;;;;;6.93;2.30;;;;;;;13.55;60.00;97674.88;4456392;32;20077;-82
2023/04/16 00:13:54;;;;;;;5.07;2.10;;;;;;;13.93;59.00;97672.53;4456364;32;20101;-81
2023/04/16 00:16:20;;;;;;;7.70;3.17;;;;;;;14.30;56.88;97673.66;4456583;32;20089;-81
2023/04/16 00:18:47;;;;;;;4.75;1.70;;;;;;;13.80;58.21;97664.66;4456238;32;20101;-81
2023/04/16 00:21:14;;;;;;;4.55;1.65;;;;;;;13.60;59.37;97668.47;4456501;32;20138;-82
2023/04/16 00:23:41;;;;;;;3.03;1.45;;;;;;;13.38;60.06;97673.28;4456194;32;20611;-82
2023/04/16 00:26:08;;;;;;;4.15;1.50;;;;;;;13.43;60.18;97671.28;4456641;32;20115;-82
2023/04/16 00:28:35;;;;;;;4.60;1.55;;;;;;;13.38;60.51;97675.87;4456349;32;20089;-82
2023/04/16 00:31:02;;;;;;;3.03;1.65;;;;;;;13.37;60.41;97679.41;4456149;32;20089;-82
2023/04/16 00:33:29;;;;;;;2.80;1.35;;;;;;;13.48;60.16;97682.19;4456343;32;20094;-82
2023/04/16 00:35:56;;;;;;;3.67;1.50;;;;;;;13.57;59.96;97678.22;4456550;32;20150;-82
2023/04/16 00:38:23;;;;;;;2.83;1.30;;;;;;;13.52;60.21;97667.28;4456031;32;20153;-82
2023/04/16 00:40:50;;;;;;;3.08;1.48;;;;;;;13.51;60.20;97676.00;4456364;32;20150;-82
2023/04/16 00:43:23;;;;;;;3.72;1.58;;;;;;;13.54;60.11;97670.63;4456362;32;20112;-82
2023/04/16 00:45:51;;;;;;;2.80;1.50;;;;;;;13.21;60.88;97676.06;4456437;32;20101;-82
2023/04/16 00:48:19;;;;;;;2.42;1.30;;;;;;;13.21;61.58;97673.47;4456243;32;20092;-82
2023/04/16 00:50:47;;;;;;;3.58;1.20;;;;;;;13.42;60.66;97671.38;4456393;32;20217;-81
2023/04/16 00:53:15;;;;;;;1.92;1.00;;;;;;;13.64;60.04;97674.31;4455892;32;20436;-82
2023/04/16 00:55:42;;;;;;;1.30;0.80;;;;;;;13.69;59.90;97669.69;4455249;32;20373;-82
2023/04/16 00:58:09;;;;;;;3.33;1.35;;;;;;;13.98;58.92;97670.47;4456323;32;20084;-82
2023/04/16 01:00:36;;;;;;;2.72;1.33;;;;;;;13.96;58.64;97676.69;4455915;32;20158;-81
2023/04/16 01:03:03;;;;;;;3.50;1.60;;;;;;;13.98;58.31;97673.06;4456250;32;20097;-82
2023/04/16 01:05:31;;;;;;;2.45;1.45;;;;;;;13.89;58.47;97669.28;4455172;32;20110;-81
2023/04/16 01:07:59;;;;;;;3.10;1.40;;;;;;;14.06;57.62;97676.03;4456025;32;20093;-82
2023/04/16 01:10:26;;;;;;;5.28;1.70;;;;;;;13.83;58.36;97681.81;4456305;32;20131;-81
2023/04/16 01:12:53;;;;;;;4.87;1.90;;;;;;;13.26;60.18;97681.81;4455556;32;20101;-82
2023/04/16 01:15:20;;;;;;;5.00;1.98;;;;;;;13.53;59.45;97680.16;4456282;32;20128;-82
2023/04/16 01:17:47;;;;;;;3.92;1.92;;;;;;;13.64;59.71;97684.69;4456369;32;20157;-82
2023/04/16 01:20:14;;;;;;;5.78;2.15;;;;;;;13.71;59.40;97680.78;4455719;32;20431;-82
2023/04/16 01:22:41;;;;;;;5.85;2.35;;;;;;;13.53;60.56;97682.75;4456118;32;20086;-81
2023/04/16 01:25:13;;;;;;;6.57;2.20;;;;;;;13.54;61.04;97684.41;4456197;32;20154;-82
2023/04/16 01:27:40;;;;;;;6.37;2.47;;;;;;;13.57;61.25;97684.22;4455892;32;20444;-82
2023/04/16 01:30:07;;;;;;;8.40;2.40;;;;;;;13.87;60.64;97691.06;4456042;32;20133;-81
2023/04/16 01:32:34;;;;;;;9.05;2.65;;;;;;;14.66;57.17;97688.62;4455986;32;20154;-81
2023/04/16 01:35:01;;;;;;;7.25;2.50;;;;;;;14.11;59.12;97681.75;4455764;32;20080;-82
2023/04/16 01:37:28;;;;;;;4.93;2.08;;;;;;;13.82;60.65;97688.75;4456065;32;20160;-82
2023/04/16 01:39:55;;;;;;;6.65;2.20;;;;;;;14.44;58.78;97690.91;4454726;32;20085;-81
2023/04/16 01:42:22;;;;;;;5.72;2.10;;;;;;;14.62;57.34;97696.72;4455590;32;20089;-81
2023/04/16 01:44:49;;;;;;;7.10;1.90;;;;;;;14.39;57.62;97698.19;4455937;32;20352;-81
2023/04/16 01:47:16;;;;;;;5.35;2.00;;;;;;;14.60;56.39;97696.84;4455924;32;20089;-81
2023/04/16 01:49:44;;;;;;;5.78;2.10;;;;;;;14.29;56.89;97703.12;4455456;32;20099;-81
2023/04/16 01:52:11;;;;;;;6.05;2.25;;;;;;;13.54;59.72;97704.31;4454775;32;20101;-81
2023/04/16 01:54:38;;;;;;;5.93;1.92;;;;;;;13.60;60.07;97699.56;4455887;32;20147;-81
2023/04/16 01:57:05;;;;;;;5.10;2.10;;;;;;;14.04;59.13;97701.25;4455526;32;20495;-81
2023/04/16 01:59:31;;;;;;;4.50;1.70;;;;;;;14.10;58.26;97708.63;4455084;32;20158;-81
2023/04/16 02:02:11;;;;;;;4.05;1.42;;;;;;;14.30;57.58;97709.13;4455401;32;20157;-81
2023/04/16 02:04:44;;;;;;;3.33;1.40;;;;;;;13.69;59.11;97707.72;4455865;32;20125;-82
2023/04/16 02:07:11;;;;;;;4.62;1.75;;;;;;;13.36;60.72;97705.41;4455722;32;20146;-82
2023/04/16 02:09:39;;;;;;;4.22;1.60;;;;;;;13.21;61.55;97704.56;4455216;32;20077;-81
2023/04/16 02:12:06;;;;;;;4.68;2.03;;;;;;;13.14;62.21;97706.63;4455477;32;20169;-81
2023/04/16 02:14:33;;;;;;;6.25;2.20;;;;;;;13.32;62.66;97704.75;4455601;32;20105;-82
2023/04/16 02:17:00;;;;;;;5.25;2.08;;;;;;;12.84;64.33;97700.63;4455236;32;20085;-81
2023/04/16 02:19:27;;;;;;;7.07;3.12;;;;;;;12.95;64.52;97701.69;4455538;32;20097;-81
2023/04/16 02:21:54;;;;;;;7.40;2.45;;;;;;;12.97;64.62;97705.03;4455411;32;20113;-81
2023/04/16 02:24:21;;;;;;;5.85;2.22;;;;;;;13.19;64.09;97704.66;4455144;32;20101;-81
2023/04/16 02:26:48;;;;;;;5.70;2.10;;;;;;;12.31;67.58;97699.31;4455404;32;20587;-81
2023/04/16 02:29:15;;;;;;;6.30;2.17;;;;;;;13.12;65.35;97705.06;4455420;32;20337;-81
2023/04/16 02:31:43;;;;;;;3.45;1.73;;;;;;;13.58;63.23;97705.78;4454869;32;20154;-81
2023/04/16 02:34:10;;;;;;;5.80;1.85;;;;;;;14.26;59.99;97705.91;4455183;32;20093;-81
2023/04/16 02:36:37;;;;;;;5.87;1.90;;;;;;;13.95;60.81;97706.16;4455283;32;20138;-81
2023/04/16 02:39:04;;;;;;;4.68;1.80;;;;;;;13.34;62.78;97700.31;4454821;32;20077;-81
2023/04/16 02:41:31;;;;;;;2.80;1.40;;;;;;;13.05;64.73;97696.81;4455156;32;20101;-81
2023/04/16 02:43:58;;;;;;;3.53;1.55;;;;;;;12.68;67.09;97696.34;4454777;32;20109;-81
2023/04/16 02:46:25;;;;;;;3.58;1.40;;;;;;;12.57;67.36;97698.72;4455152;32;20439;-81
2023/04/16 02:48:52;;;;;;;2.20;1.20;;;;;;;12.69;68.10;97698.00;4455037;32;20105;-81
2023/04/16 02:51:19;;;;;;;3.90;1.20;;;;;;;11.83;71.70;97703.66;4454649;32;20505;-81
2023/04/16 02:53:46;;;;;;;3.15;1.60;;;;;;;12.18;71.08;97704.31;4455036;32;20395;-81
2023/04/16 02:56:13;;;;;;;2.95;1.25;;;;;;;12.21;71.35;97711.91;4454877;32;20084;-81
2023/04/16 02:58:40;;;;;;;3.80;1.30;;;;;;;12.84;68.51;97706.66;4454517;32;20081;-81
2023/04/16 03:01:07;;;;;;;2.85;1.20;;;;;;;12.70;68.04;97699.69;4454820;32;20093;-81
2023/04/16 03:03:34;;;;;;;2.97;1.27;;;;;;;11.88;72.04;97710.22;4454799;32;20165;-81
2023/04/16 03:06:01;;;;;;;3.25;1.50;;;;;;;11.66;73.82;97708.84;4454433;32;20134;-81
2023/04/16 03:08:28;;;;;;;4.05;1.65;;;;;;;11.30;75.98;97715.81;4454836;32;20081;-81
2023/04/16 03:10:55;;;;;;;3.58;1.50;;;;;;;11.59;74.41;97713.50;4455716;32;20093;-81
2023/04/16 03:13:22;;;;;;;3.25;1.60;;;;;;;10.91;78.45;97713.47;4456416;32;20520;-81
2023/04/16 03:15:48;;;;;;;3.75;1.60;;;;;;;10.78;79.05;97709.00;4457104;32;20100;-81
2023/04/16 03:18:15;;;;;;;3.53;1.60;;;;;;;11.64;75.19;97711.50;4457001;32;20082;-81
2023/04/16 03:20:42;;;;;;;2.62;1.30;;;;;;;12.00;73.46;97713.91;4456588;32;20097;-81
2023/04/16 03:23:09;;;;;;;2.58;1.40;;;;;;;12.39;71.07;97710.91;4456914;32;20093;-81
2023/04/16 03:25:39;;;;;;;3.45;1.35;;;;;;;12.65;70.06;97714.66;4456977;32;20088;-81
2023/04/16 03:28:06;;;;;;;3.60;1.77;;;;;;;12.73;68.71;97717.62;4456615;32;20089;-81
2023/04/16 03:30:33;;;;;;;4.18;1.80;;;;;;;12.38;70.79;97721.34;4457001;32;20097;-81
2023/04/16 03:33:00;;;;;;;5.50;2.03;;;;;;;11.94;72.68;97729.75;4456609;32;20093;-81
2023/04/16 03:35:26;;;;;;;4.57;2.10;;;;;;;11.55;74.22;97733.47;4456920;32;20103;-81
2023/04/16 03:37:53;;;;;;;6.37;2.40;;;;;;;11.70;74.08;97733.62;4456868;32;20069;-81
2023/04/16 03:40:20;;;;;;;6.22;2.60;;;;;;;10.99;78.53;97738.94;4456614;32;20615;-81
2023/04/16 03:42:47;;;;;;;7.37;2.72;;;;;;;11.23;78.77;97732.53;4456879;32;20154;-81
2023/04/16 03:45:14;;;;;;;8.27;2.97;;;;;;;11.34;79.06;97744.06;4456911;32;20167;-81
2023/04/16 03:47:41;;;;;;;7.45;3.17;;;;;;;9.60;88.34;97744.53;4456444;32;20097;-80
2023/04/16 03:50:08;;;;;;;7.12;2.80;;;;;;;10.03;88.59;97752.03;4456862;32;20097;-81
2023/04/16 03:52:35;;;;;;;7.70;3.20;;;;;;;11.79;78.41;97756.38;4456735;32;20120;-81
2023/04/16 03:55:03;;;;;;;5.95;2.60;;;;;;;12.12;75.45;97758.97;4456426;32;20103;-81
2023/04/16 03:57:30;;;;;;;8.02;3.03;;;;;;;12.43;73.90;97758.97;4456735;32;20086;-81
2023/04/16 03:59:56;;;;;;;8.25;3.53;;;;;;;12.53;73.08;97755.88;4456749;32;20112;-81
2023/04/16 04:02:23;;;;;;;10.30;4.35;;;;;;;11.46;78.35;97758.94;4456235;32;20093;-81
2023/04/16 04:04:51;;;;;;;11.25;4.95;;;;;;;11.18;82.04;97756.94;4456696;32;20423;-81
2023/04/16 04:07:18;;;;;;;11.73;5.05;;;;;;;10.13;88.90;97755.84;4456742;32;20124;-81
2023/04/16 04:09:44;;;;;;;11.70;5.30;;;;;;;9.79;91.17;97758.28;4456116;32;20112;-81
2023/04/16 04:12:12;;;;;;;12.40;5.22;;;;;;;10.08;89.68;97760.37;4456430;32;20089;-81
2023/04/16 04:14:39;;;;;;;12.00;5.28;;;;;;;9.63;93.86;97765.81;4456694;32;20142;-81
2023/04/16 04:17:07;;;;;;;15.70;9.23;;;;;;;9.93;92.28;97770.53;4456372;32;20089;-81
2023/04/16 04:19:34;;;;;;;14.57;7.28;;;;;;;10.00;92.60;97775.37;4456505;32;20102;-81
2023/04/16 04:22:01;;;;;;;14.65;7.62;;;;;;;9.36;95.50;97783.31;4456242;32;20097;-81
2023/04/16 04:24:27;;;;;;;13.93;6.68;;;;;;;9.72;94.89;97791.19;4456279;32;20138;-81
2023/04/16 04:26:56;;;;;;;13.15;6.28;;;;;;;10.88;88.65;97793.66;4456678;32;20098;-81
2023/04/16 04:29:22;;;;;;;13.93;6.47;;;;;;;10.20;91.65;97800.22;4456300;32;20112;-81
2023/04/16 04:31:50;;;;;;;16.10;6.72;;;;;;;11.10;86.04;97800.38;4456497;32;20104;-81
2023/04/16 04:34:17;;;;;;;15.05;6.65;;;;;;;9.70;93.40;97800.72;4456346;32;20474;-81
2023/04/16 04:36:44;;;;;;;13.50;6.28;;;;;;;9.98;92.06;97802.09;4456203;32;20461;-81
2023/04/16 04:39:10;;;;;;;14.20;6.50;;;;;;;10.29;90.46;97802.44;4456338;32;20456;-81
2023/04/16 04:41:37;;;;;;;13.93;6.18;;;;;;;9.77;92.51;97801.28;4456411;32;20093;-81
2023/04/16 04:44:04;;;;;;;;;;;;;;;9.61;95.07;97813.16;4456387;32;20478;-81
2023/04/16 04:46:31;;;;;;;15.18;6.82;;;;;;;9.49;97.36;97810.22;4456559;32;20013;-81
2023/04/16 04:48:58;;;;;;;14.00;5.82;;;;;;;9.26;98.02;97805.19;4456407;32;20097;-81
2023/04/16 04:51:25;;;;;;;14.55;6.68;;;;;;;9.57;95.19;97804.75;4456079;32;20101;-81
2023/04/16 04:53:52;;;;;;;14.27;7.10;;;;;;;9.69;95.47;97804.22;4456361;32;20089;-81
2023/04/16 04:56:19;;;;;;;15.98;6.72;;;;;;;9.74;96.69;97806.59;4456432;32;20837;-81
2023/04/16 04:58:48;;;;;;;15.02;7.53;;;;;;;9.12;100.00;97808.31;4455816;32;20097;-81
2023/04/16 05:01:15;;;;;;;15.43;7.40;;;;;;;9.37;100.00;97809.91;4456363;32;20093;-81
2023/04/16 05:03:43;;;;;;;16.35;7.68;;;;;;;9.96;95.58;97809.91;4456262;32;20089;-81
2023/04/16 05:06:10;;;;;;;15.80;7.37;;;;;;;9.80;96.28;97807.16;4455948;32;20492;-81
2023/04/16 05:08:37;;;;;;;17.85;7.47;;;;;;;10.47;92.19;97816.22;4456104;32;20106;-81
2023/04/16 05:11:04;;;;;;;14.15;6.55;;;;;;;11.42;86.88;97824.59;4456441;32;20092;-81
2023/04/16 05:13:31;;;;;;;14.18;6.45;;;;;;;11.29;88.00;97830.38;4455606;32;20081;-81
2023/04/16 05:15:58;;;;;;;15.20;7.62;;;;;;;11.27;86.89;97832.22;4456228;32;20108;-81
2023/04/16 05:18:25;;;;;;;14.87;6.87;;;;;;;10.34;91.71;97836.59;4455816;32;20116;-81
2023/04/16 05:20:52;;;;;;;14.32;6.97;;;;;;;10.64;91.41;97838.69;4456203;32;20116;-81
2023/04/16 05:23:19;;;;;;;14.48;6.78;;;;;;;10.17;92.77;97835.63;4456038;32;20089;-81
2023/04/16 05:25:46;;;;;;;14.02;6.70;;;;;;;9.89;94.64;97836.84;4455882;32;20356;-81
2023/04/16 05:28:13;;;;;;;14.10;6.32;;;;;;;10.71;91.92;97840.88;4456044;32;20452;-81
2023/04/16 05:30:40;;;;;;;13.20;5.90;;;;;;;9.93;95.60;97840.97;4456275;32;20129;-81
2023/04/16 05:33:07;;;;;;;13.07;5.90;;;;;;;11.13;90.27;97842.34;4454741;32;20124;-81
2023/04/16 05:35:34;;;;;;;13.02;5.68;;;;;;;10.97;89.93;97846.59;4456064;32;20085;-81
2023/04/16 05:38:00;;;;;;;14.07;6.05;;;;;;;12.00;84.85;97844.94;4455937;32;20899;-81
2023/04/16 05:40:27;;;;;;;11.93;5.72;;;;;;;10.98;90.19;97848.25;4455731;32;20188;-81
2023/04/16 05:42:54;;;;;;;11.73;4.62;;;;;;;10.23;94.87;97841.41;4455787;32;20085;-81
2023/04/16 05:45:21;;;;;;;10.75;5.00;;;;;;;9.78;97.18;97842.47;4455949;32;20107;-81
2023/04/16 05:47:48;;;;;;;11.35;4.82;;;;;;;10.10;94.66;97842.78;4455518;32;20360;-81
2023/04/16 05:50:15;;;;;;;12.00;5.00;;;;;;;10.65;91.67;97848.09;4451447;32;143238;-81
2023/04/16 05:52:42;;;;;;;10.82;5.00;;;;;;;10.77;90.57;97839.78;4455816;32;20090;-81
2023/04/16 05:55:09;;;;;;;11.60;5.28;;;;;;;10.86;91.55;97848.84;4455558;32;20080;-81
2023/04/16 05:57:36;;;;;;;11.35;4.82;;;;;;;10.36;92.85;97847.66;4455821;32;20093;-81
2023/04/16 06:00:03;;;;;;;10.15;4.25;;;;;;;10.27;94.53;97849.81;4455723;32;20097;-81
2023/04/16 06:02:30;;;;;;;10.52;4.65;;;;;;;10.78;92.55;97848.38;4455298;32;20124;-81
2023/04/16 06:04:57;;;;;;;10.50;4.47;;;;;;;11.43;89.94;97844.37;4455725;32;20088;-81
2023/04/16 06:07:24;;;;;;;9.43;4.05;;;;;;;10.70;93.07;97840.97;4455405;32;20093;-81
2023/04/16 06:09:51;;;;;;;9.50;4.00;;;;;;;10.87;91.81;97848.78;4455479;32;20089;-81
2023/04/16 06:12:18;;;;;;;9.18;3.65;;;;;;;11.38;88.89;97851.47;4455347;32;20085;-81
2023/04/16 06:14:45;;;;;;;10.15;3.80;;;;;;;11.60;88.03;97854.72;4455364;32;20076;-81
2023/04/16 06:17:12;;;;;;;9.65;3.92;;;;;;;11.91;87.31;97858.34;4455565;32;20089;-81
2023/04/16 06:19:38;;;;;;;9.88;4.20;;;;;;;11.92;87.80;97867.78;4455364;32;20154;-81
2023/04/16 06:22:06;;;;;;;10.07;4.28;;;;;;;11.93;85.72;97864.28;4455233;32;20504;-81
2023/04/16 06:24:33;;;;;;;9.32;4.20;;;;;;;11.87;86.35;97861.09;4455426;32;20080;-81
2023/04/16 06:27:01;;;;;;;10.00;4.87;;;;;;;11.84;84.92;97860.41;4455469;32;20093;-81
2023/04/16 06:29:28;;;;;;;11.80;4.70;;;;;;;11.20;87.94;97858.41;4454890;32;20089;-81
2023/04/16 06:32:07;;;;;;;9.70;4.37;;;;;;;10.64;91.17;97860.16;4455339;32;20089;-81
2023/04/16 06:34:34;;;;;;;10.07;4.60;;;;;;;10.37;92.44;97871.72;4455356;32;20442;-81
2023/04/16 06:37:01;;;;;;;9.85;4.47;;;;;;;10.10;95.23;97858.25;4454886;32;20165;-81
2023/04/16 06:39:28;;;;;;;10.68;4.78;;;;;;;11.05;90.09;97861.69;4455062;32;20089;-81
2023/04/16 06:41:55;;;;;;;10.93;4.72;;;;;;;10.88;90.78;97865.09;4455134;32;20086;-81
2023/04/16 06:44:22;;;;;;;10.65;4.90;;;;;;;10.87;91.95;97856.50;4455104;32;20149;-81
2023/04/16 06:46:49;;;;;;;10.77;4.60;;;;;;;11.40;89.32;97854.84;4457186;32;20159;-81
2023/04/16 06:49:16;;;;;;;10.57;4.25;;;;;;;11.36;89.65;97864.47;4457215;32;20171;-81
2023/04/16 06:51:43;;;;;;;10.07;4.37;;;;;;;11.87;84.45;97853.34;4456974;32;20089;-81
2023/04/16 06:54:10;;;;;;;8.57;4.05;;;;;;;11.80;85.56;97864.91;4457035;32;20076;-81
2023/04/16 06:56:37;;;;;;;10.50;4.72;;;;;;;11.46;88.94;97859.69;4456902;32;20093;-81
2023/04/16 06:59:04;;;;;;;9.70;3.90;;;;;;;11.95;85.41;97862.47;4457010;32;20097;-81
2023/04/16 07:01:31;;;;;;;8.38;3.17;;;;;;;12.06;83.87;97860.16;4457065;32;20077;-81
2023/04/16 07:03:58;;;;;;;9.43;3.40;;;;;;;12.61;80.54;97865.84;4456760;32;20150;-81
2023/04/16 07:06:26;;;;;;;7.82;3.33;;;;;;;12.53;81.26;97872.34;4457133;32;20089;-81
2023/04/16 07:08:53;;;;;;;7.53;3.30;;;;;;;12.95;77.92;97874.34;4457097;32;20581;-81
2023/04/16 07:11:20;;;;;;;8.18;3.20;;;;;;;11.94;83.63;97871.12;4456705;32;20109;-82
2023/04/16 07:13:47;;;;;;;7.85;3.58;;;;;;;12.58;81.19;97873.78;4456920;32;20153;-81
2023/04/16 07:16:13;;;;;;;8.20;3.53;;;;;;;12.40;81.38;97875.56;4457113;32;20102;-81
2023/04/16 07:18:40;;;;;;;6.62;2.83;;;;;;;11.73;85.32;97871.25;4456655;32;20159;-81
2023/04/16 07:21:07;;;;;;;8.57;3.62;;;;;;;11.74;85.61;97872.09;4457065;32;20104;-81
2023/04/16 07:23:34;;;;;;;7.55;3.65;;;;;;;12.26;83.71;97878.06;4456868;32;20104;-81
2023/04/16 07:26:01;;;;;;;7.18;2.80;;;;;;;12.96;79.72;97881.19;4456631;32;20561;-81
2023/04/16 07:28:28;;;;;;;6.43;3.03;;;;;;;12.90;79.94;97878.97;4456951;32;20109;-81
2023/04/16 07:30:55;;;;;;;6.43;2.97;;;;;;;12.75;79.46;97880.63;4457050;32;20104;-82
2023/04/16 07:33:22;;;;;;;8.63;3.28;;;;;;;12.76;79.22;97874.56;4455319;32;20073;-81
2023/04/16 07:35:50;;;;;;;9.98;2.75;;;;;;;13.01;78.78;97879.22;4456963;32;20093;-81
2023/04/16 07:38:16;;;;;;;6.10;2.50;;;;;;;12.52;80.62;97874.09;4456976;32;20241;-81
2023/04/16 07:40:43;;;;;;;5.72;2.25;;;;;;;12.69;82.93;97881.81;4456624;32;20085;-81
2023/04/16 07:43:10;;;;;;;7.40;2.60;;;;;;;12.44;83.63;97878.81;4456628;32;20149;-81
2023/04/16 07:45:37;;;;;;;4.53;2.20;;;;;;;12.68;81.80;97874.13;4456605;32;20104;-81
2023/04/16 07:48:06;;;;;;;5.30;2.30;;;;;;;12.75;81.57;97883.22;4456924;32;20550;-81
2023/04/16 07:50:33;;;;;;;4.32;1.95;;;;;;;12.17;85.79;97883.72;4456754;32;20097;-81
2023/04/16 07:53:00;;;;;;;4.47;2.15;;;;;;;12.85;81.02;97886.97;4456525;32;20173;-81
2023/04/16 07:55:27;;;;;;;4.15;1.98;;;;;;;12.42;81.61;97880.66;4455544;32;20108;-81
2023/04/16 07:57:54;;;;;;;4.25;2.10;;;;;;;12.40;82.00;97878.16;4456279;32;20157;-81
2023/04/16 08:00:21;;;;;;;4.57;1.95;;;;;;;12.99;79.05;97889.66;4456482;32;20081;-81
2023/04/16 08:02:48;;;;;;;4.65;2.03;;;;;;;12.22;83.71;97881.72;4456603;32;20103;-81
2023/04/16 08:05:15;;;;;;;4.18;1.92;;;;;;;12.40;81.54;97878.16;4456741;32;20085;-81
2023/04/16 08:07:42;;;;;;;3.92;1.90;;;;;;;12.59;81.57;97880.63;4456276;32;20444;-81
2023/04/16 08:10:09;;;;;;;4.68;2.00;;;;;;;12.32;82.44;97876.88;4456718;32;20152;-81
2023/04/16 08:12:36;;;;;;;4.60;2.00;;;;;;;12.59;80.44;97882.37;4456352;32;20155;-81
2023/04/16 08:15:04;;;;;;;4.35;2.00;;;;;;;13.09;78.36;97887.41;4456260;32;20168;-81
2023/04/16 08:17:33;;;;;;;3.60;1.67;;;;;;;12.63;79.11;97889.03;4456569;32;20162;-81
2023/04/16 08:20:00;;;;;;;4.25;2.03;;;;;;;12.19;82.19;97896.56;4456547;32;20153;-81
2023/04/16 08:22:27;;;;;;;3.00;1.55;;;;;;;12.89;81.23;97887.66;4454944;32;20093;-81
2023/04/16 08:24:54;;;;;;;2.80;1.60;;;;;;;13.22;78.88;97887.59;4456598;32;20085;-81
2023/04/16 08:27:21;;;;;;;4.20;2.03;;;;;;;12.48;82.20;97885.53;4456537;32;20432;-81
2023/04/16 08:29:48;;;;;;;4.18;1.90;;;;;;;12.02;85.67;97887.09;4456207;32;20093;-81
2023/04/16 08:32:15;;;;;;;5.10;1.90;;;;;;;11.83;87.23;97888.03;4456660;32;20518;-81
2023/04/16 08:34:42;;;;;;;4.78;2.17;;;;;;;12.13;86.46;97900.31;4456424;32;20104;-81
2023/04/16 08:37:09;;;;;;;4.20;2.00;;;;;;;11.21;89.87;97896.22;4456513;32;20097;-81
2023/04/16 08:39:36;;;;;;;4.35;1.75;;;;;;;11.41;90.77;97895.28;4456261;32;20608;-81
2023/04/16 08:42:04;;;;;;;5.72;2.00;;;;;;;11.50;88.08;97895.66;4456094;32;20081;-81
2023/04/16 08:44:34;;;;;;;4.40;1.90;;;;;;;10.84;90.97;97892.75;4456451;32;20232;-81
2023/04/16 08:47:01;;;;;;;4.30;1.90;;;;;;;10.95;92.61;97894.84;4456471;32;20092;-81
2023/04/16 08:49:28;;;;;;;5.68;2.15;;;;;;;10.97;91.51;97895.63;4454810;32;20166;-81
2023/04/16 08:51:56;;;;;;;4.05;1.95;;;;;;;10.64;94.92;97900.59;4456472;32;20068;-81
2023/04/16 08:54:43;;;;;;;6.10;2.40;;;;;;;11.11;92.51;97907.91;4456301;32;20093;-81
2023/04/16 08:57:13;;;;;;;6.22;2.47;;;;;;;11.45;90.03;97907.94;4456250;32;20093;-81
2023/04/16 08:59:47;;;;;;;5.78;2.40;;;;;;;11.33;92.38;97913.72;4455101;32;20080;-81
2023/04/16 09:02:14;;;;;;;4.85;2.20;;;;;;;11.54;91.17;97923.00;4456179;32;20600;-81
2023/04/16 09:04:41;;;;;;;5.95;2.45;;;;;;;11.22;94.45;97921.97;4454754;32;20169;-81
2023/04/16 09:07:09;;;;;;;6.62;2.60;;;;;;;11.39;92.91;97930.69;4456257;32;20161;-81
2023/04/16 09:09:37;;;;;;;6.75;2.37;;;;;;;11.91;90.05;97935.91;4455164;32;20088;-81
2023/04/16 09:12:05;;;;;;;5.15;2.10;;;;;;;11.90;90.96;97945.41;4455797;32;20081;-81
2023/04/16 09:14:31;;;;;;;4.32;1.98;;;;;;;12.51;85.86;97941.47;4456273;32;20158;-81
2023/04/16 09:17:01;;;;;;;4.03;1.92;;;;;;;12.38;85.71;97939.50;4455978;32;20093;-81
2023/04/16 09:19:28;;;;;;;3.67;1.95;;;;;;;12.48;84.82;97944.22;4456073;32;20093;-81
2023/04/16 09:21:55;;;;;;;3.90;1.92;;;;;;;12.23;86.20;97948.06;4456173;32;20586;-81
2023/04/16 09:24:22;;;;;;;5.97;2.33;;;;;;;12.70;83.53;97945.59;4455870;32;20082;-81
2023/04/16 09:26:51;;;;;;;5.78;2.45;;;;;;;12.46;83.78;97941.72;4455056;32;20101;-81
2023/04/16 09:29:35;;;;;;;5.93;2.20;;;;;;;12.01;89.36;97943.13;4455891;32;20131;-81
2023/04/16 09:32:05;;;;;;;4.78;2.08;;;;;;;11.93;89.38;97947.03;4455739;32;20076;-81
2023/04/16 09:34:33;;;;;;;5.07;2.00;;;;;;;11.82;92.38;97955.31;4456100;32;20475;-81
2023/04/16 09:37:19;;;;;;;4.18;1.90;;;;;;;12.81;84.94;97955.38;4454897;32;20112;-81
2023/04/16 09:39:56;;;;;;;4.43;2.00;;;;;;;13.04;83.75;97954.97;4455616;32;20107;-81
2023/04/16 09:42:26;;;;;;;3.78;1.90;;;;;;;12.34;86.33;97961.28;4455834;32;20093;-81
2023/04/16 09:44:54;;;;;;;4.05;1.90;;;;;;;12.31;86.86;97965.78;4455796;32;20104;-81
2023/04/16 09:47:41;;;;;;;5.32;2.00;;;;;;;12.17;87.19;97966.47;4456010;32;20462;-81
2023/04/16 09:50:09;;;;;;;6.03;2.10;;;;;;;12.38;85.90;97969.72;4455892;32;20483;-81
2023/04/16 09:52:38;;;;;;;2.45;1.50;;;;;;;12.58;87.32;97974.72;4454387;32;20443;-81
2023/04/16 09:55:05;;;;;;;4.30;2.00;;;;;;;12.84;84.39;97977.69;4455772;32;20150;-81
2023/04/16 09:57:36;;;;;;;3.70;1.60;;;;;;;13.15;83.26;97969.94;4455814;32;20116;-82
2023/04/16 10:00:06;;;;;;;3.90;1.92;;;;;;;12.80;83.25;97969.25;4454321;32;20096;-81
2023/04/16 10:02:37;;;;;;;4.00;1.83;;;;;;;13.51;81.31;97972.31;4455562;32;20085;-82
2023/04/16 10:05:05;;;;;;;5.30;1.98;;;;;;;13.43;80.87;97964.13;4454712;32;20139;-81
2023/04/16 10:07:33;;;;;;;6.03;2.10;;;;;;;12.88;83.61;97967.09;4455528;32;20097;-81
2023/04/16 10:10:02;;;;;;;4.35;2.00;;;;;;;12.79;83.27;97959.81;4455546;32;20080;-81
2023/04/16 10:12:31;;;;;;;5.20;2.15;;;;;;;12.81;83.52;97951.97;4455191;32;20410;-82
2023/04/16 10:14:58;;;;;;;4.65;2.12;;;;;;;13.27;82.90;97958.09;4455319;32;20146;-81
2023/04/16 10:17:26;;;;;;;5.68;2.10;;;;;;;12.54;85.30;97949.88;4455610;32;20097;-81
2023/04/16 10:19:53;;;;;;;5.40;2.20;;;;;;;12.63;85.23;97952.00;4456083;32;20160;-82
2023/04/16 10:22:20;;;;;;;6.05;2.45;;;;;;;13.11;82.35;97950.31;4457094;32;20096;-82
2023/04/16 10:24:47;;;;;;;5.15;2.05;;;;;;;13.30;82.77;97957.94;4457435;32;20105;-81
2023/04/16 10:27:16;;;;;;;3.15;1.73;;;;;;;13.15;80.30;97951.81;4455955;32;20128;-81
2023/04/16 10:29:43;;;;;;;4.57;2.08;;;;;;;13.41;79.60;97958.19;4457311;32;20088;-81
2023/04/16 10:32:10;;;;;;;5.53;2.10;;;;;;;12.77;80.69;97951.28;4457365;32;20145;-81
2023/04/16 10:34:38;;;;;;;5.05;2.05;;;;;;;12.96;81.96;97938.19;4457055;32;20085;-81
2023/04/16 10:37:05;;;;;;;5.68;2.08;;;;;;;12.84;81.47;97949.19;4457401;32;20159;-81
2023/04/16 10:39:37;;;;;;;5.53;2.30;;;;;;;12.43;83.93;97945.28;4457147;32;20093;-81
2023/04/16 10:42:11;;;;;;;4.00;1.70;;;;;;;13.14;83.74;97942.37;4456973;32;20138;-81
2023/04/16 10:44:41;;;;;;;4.15;1.95;;;;;;;12.90;82.78;97935.94;4457336;32;20154;-82
2023/04/16 10:47:12;;;;;;;4.28;1.90;;;;;;;12.74;81.92;97935.91;4457420;32;20103;-82
2023/04/16 10:49:41;;;;;;;6.68;2.00;;;;;;;12.44;83.27;97926.28;4455616;32;20162;-81
2023/04/16 10:52:18;;;;;;;4.30;1.50;;;;;;;12.60;84.31;97931.47;4457239;32;20462;-81
2023/04/16 10:54:47;;;;;;;5.40;1.95;;;;;;;13.00;80.37;97931.94;4457335;32;20089;-81
2023/04/16 10:57:16;;;;;;;3.35;1.52;;;;;;;12.90;82.38;97929.00;4456897;32;20554;-81
2023/04/16 10:59:44;;;;;;;4.45;2.00;;;;;;;13.13;80.43;97926.91;4457004;32;20430;-82
2023/04/16 11:02:19;;;;;;;4.05;1.70;;;;;;;13.49;80.88;97927.47;4456851;32;20097;-82
2023/04/16 11:04:47;;;;;;;4.05;1.80;;;;;;;13.33;79.46;97926.69;4457287;32;20097;-81
2023/04/16 11:07:31;;;;;;;4.55;1.80;;;;;;;13.16;83.35;97917.22;4457193;32;20104;-82
2023/04/16 11:10:01;;;;;;;4.60;2.00;;;;;;;12.90;83.08;97910.03;4455620;32;20097;-82
2023/04/16 11:12:28;;;;;;;4.12;1.80;;;;;;;12.55;86.03;97922.28;4456842;32;20109;-82
2023/04/16 11:15:04;;;;;;;4.40;1.80;;;;;;;13.35;83.58;97917.06;4457096;32;20167;-81
2023/04/16 11:17:43;;;;;;;3.60;1.85;;;;;;;13.62;80.62;97911.25;4456928;32;20085;-81
2023/04/16 11:20:20;;;;;;;4.20;1.92;;;;;;;12.93;83.50;97922.81;4457079;32;20080;-81
2023/04/16 11:22:48;;;;;;;3.50;1.55;;;;;;;14.08;79.02;97912.84;4456879;32;20108;-81
2023/04/16 11:25:20;;;;;;;5.75;2.12;;;;;;;13.73;81.03;97907.13;4455579;32;20718;-81
2023/04/16 11:27:48;;;;;;;3.80;1.87;;;;;;;14.61;77.58;97915.78;4456998;32;20097;-81
2023/04/16 11:30:16;;;;;;;3.45;1.80;;;;;;;14.95;73.65;97911.91;4456590;32;20179;-81
2023/04/16 11:32:43;;;;;;;4.12;1.95;;;;;;;13.96;83.62;97908.38;4456249;32;20077;-81
2023/04/16 11:35:15;;;;;;;3.83;1.90;;;;;;;14.66;74.16;97904.16;4456804;32;20147;-81